^^
Saratoga-Weather Station Historical Data
Daily Summary for February 10, 2021 Units:  Both    English   Metric
Daily Weekly Monthly Yearly Custom
  High: Low: Average:
Temperature: 29.7 °F /  -1.3 °C 27.9 °F /  -2.3 °C 28.8 °F /  -1.8 °C
Dew Point: 28.6 °F /  -1.9 °C 26.6 °F /  -3 °C 27.3 °F /  -2.6 °C
Humidity: 96% 92% 95%
Wind Speed: 2mph /  3.2km/h - 0.1mph /  0.1km/h
Wind Gust: 2mph /  3.2km/h - -
Wind- - ESE
Pressure: 30.2 in /  1024.0 hPa 30.2 in /  1023.4 hPa -
Precipitation: 0 in /  0.0 mm    
Historical Graphs
 
 
Tabular Data for February 10, 2021
Time Temperature Dew Point Pressure Wind Wind Speed Wind Gust Humidity Rainfall Rate (Hourly) solar
00:04 29.1 °F /  -1.6 °C 27.1 °F /  -2.7 °C 30.2in /  1024.0hPa Calm     92% 0in /  0.0mm 0 W/m2
00:09 29.1 °F /  -1.6 °C 27.1 °F /  -2.7 °C 30.2in /  1024.0hPa Calm     92% 0in /  0.0mm 0 W/m2
00:14 28.9 °F /  -1.7 °C 27.1 °F /  -2.7 °C 30.2in /  1024.0hPa Calm     93% 0in /  0.0mm 0 W/m2
00:19 29.1 °F /  -1.6 °C 27.3 °F /  -2.6 °C 30.2in /  1024.0hPa Calm     93% 0in /  0.0mm 0 W/m2
00:24 29.1 °F /  -1.6 °C 27.3 °F /  -2.6 °C 30.2in /  1024.0hPa Calm     93% 0in /  0.0mm 0 W/m2
00:29 29.1 °F /  -1.6 °C 27.3 °F /  -2.6 °C 30.2in /  1024.0hPa Calm     93% 0in /  0.0mm 0 W/m2
00:34 29.1 °F /  -1.6 °C 27.3 °F /  -2.6 °C 30.2in /  1024.0hPa Calm     93% 0in /  0.0mm 0 W/m2
00:39 29.1 °F /  -1.6 °C 27.3 °F /  -2.6 °C 30.2in /  1023.7hPa Calm     93% 0in /  0.0mm 0 W/m2
00:44 29.1 °F /  -1.6 °C 27.7 °F /  -2.4 °C 30.2in /  1023.7hPa Calm     94% 0in /  0.0mm 0 W/m2
00:49 29.1 °F /  -1.6 °C 27.7 °F /  -2.4 °C 30.2in /  1023.7hPa Calm     94% 0in /  0.0mm 0 W/m2
00:54 28.9 °F /  -1.7 °C 27.5 °F /  -2.5 °C 30.2in /  1023.4hPa Calm     94% 0in /  0.0mm 0 W/m2
00:59 28.9 °F /  -1.7 °C 27.5 °F /  -2.5 °C 30.2in /  1023.7hPa Calm     94% 0in /  0.0mm 0 W/m2
01:04 28.8 °F /  -1.8 °C 27 °F /  -2.8 °C 30.2in /  1023.7hPa Calm     93% 0in /  0.0mm 0 W/m2
01:09 28.8 °F /  -1.8 °C 27.3 °F /  -2.6 °C 30.2in /  1023.7hPa Calm   1mph /  1.6km/h 94% 0in /  0.0mm 0 W/m2
01:14 28.6 °F /  -1.9 °C 27.1 °F /  -2.7 °C 30.2in /  1023.7hPa Calm     94% 0in /  0.0mm 0 W/m2
01:19 28.6 °F /  -1.9 °C 27.1 °F /  -2.7 °C 30.2in /  1023.7hPa Calm     94% 0in /  0.0mm 0 W/m2
01:24 28.6 °F /  -1.9 °C 27.1 °F /  -2.7 °C 30.2in /  1023.7hPa Calm     94% 0in /  0.0mm 0 W/m2
01:29 28.4 °F /  -2 °C 27 °F /  -2.8 °C 30.2in /  1023.7hPa ESE 0.9mph /  1.4km/h 1mph /  1.6km/h 94% 0in /  0.0mm 0 W/m2
01:34 28.2 °F /  -2.1 °C 26.8 °F /  -2.9 °C 30.2in /  1023.4hPa Calm     94% 0in /  0.0mm 0 W/m2
01:39 28.2 °F /  -2.1 °C 26.8 °F /  -2.9 °C 30.2in /  1023.7hPa Calm     94% 0in /  0.0mm 0 W/m2
01:44 28.2 °F /  -2.1 °C 26.8 °F /  -2.9 °C 30.2in /  1023.4hPa Calm   1mph /  1.6km/h 94% 0in /  0.0mm 0 W/m2
01:49 28.4 °F /  -2 °C 27.1 °F /  -2.7 °C 30.2in /  1023.7hPa Calm     95% 0in /  0.0mm 0 W/m2
01:54 28.6 °F /  -1.9 °C 27.3 °F /  -2.6 °C 30.2in /  1023.7hPa Calm     95% 0in /  0.0mm 0 W/m2
01:59 28.8 °F /  -1.8 °C 27.5 °F /  -2.5 °C 30.2in /  1023.7hPa ESE 0.9mph /  1.4km/h 2mph /  3.2km/h 95% 0in /  0.0mm 0 W/m2
02:04 28.9 °F /  -1.7 °C 27.7 °F /  -2.4 °C 30.2in /  1023.7hPa Calm   1mph /  1.6km/h 95% 0in /  0.0mm 0 W/m2
02:09 29.1 °F /  -1.6 °C 27.9 °F /  -2.3 °C 30.2in /  1023.7hPa Calm   2mph /  3.2km/h 95% 0in /  0.0mm 0 W/m2
02:14 29.3 °F /  -1.5 °C 28 °F /  -2.2 °C 30.2in /  1023.4hPa Calm     95% 0in /  0.0mm 0 W/m2
02:19 29.3 °F /  -1.5 °C 28 °F /  -2.2 °C 30.2in /  1023.7hPa Calm     95% 0in /  0.0mm 0 W/m2
02:24 29.1 °F /  -1.6 °C 27.9 °F /  -2.3 °C 30.2in /  1023.7hPa Calm     95% 0in /  0.0mm 0 W/m2
02:29 29.1 °F /  -1.6 °C 27.9 °F /  -2.3 °C 30.2in /  1023.7hPa Calm     95% 0in /  0.0mm 0 W/m2
02:34 28.9 °F /  -1.7 °C 27.5 °F /  -2.5 °C 30.2in /  1023.7hPa Calm     94% 0in /  0.0mm 0 W/m2
02:39 28.8 °F /  -1.8 °C 27.3 °F /  -2.6 °C 30.2in /  1023.7hPa Calm     94% 0in /  0.0mm 0 W/m2
02:44 28.8 °F /  -1.8 °C 27.3 °F /  -2.6 °C 30.2in /  1023.7hPa Calm     94% 0in /  0.0mm 0 W/m2
02:49 28.6 °F /  -1.9 °C 27.1 °F /  -2.7 °C 30.2in /  1023.7hPa Calm     94% 0in /  0.0mm 0 W/m2
02:54 28.2 °F /  -2.1 °C 26.8 °F /  -2.9 °C 30.2in /  1023.7hPa Calm     94% 0in /  0.0mm 0 W/m2
02:59 28.2 °F /  -2.1 °C 26.8 °F /  -2.9 °C 30.2in /  1023.7hPa Calm     94% 0in /  0.0mm 0 W/m2
03:04 28 °F /  -2.2 °C 26.6 °F /  -3 °C 30.2in /  1023.7hPa Calm     94% 0in /  0.0mm 0 W/m2
03:09 28 °F /  -2.2 °C 26.6 °F /  -3 °C 30.2in /  1023.7hPa Calm     94% 0in /  0.0mm 0 W/m2
03:14 27.9 °F /  -2.3 °C 26.6 °F /  -3 °C 30.2in /  1023.7hPa Calm     95% 0in /  0.0mm 0 W/m2
03:19 27.9 °F /  -2.3 °C 26.6 °F /  -3 °C 30.2in /  1024.0hPa Calm     95% 0in /  0.0mm 0 W/m2
03:24 27.9 °F /  -2.3 °C 26.6 °F /  -3 °C 30.2in /  1023.7hPa Calm     95% 0in /  0.0mm 0 W/m2
03:29 27.9 °F /  -2.3 °C 26.6 °F /  -3 °C 30.2in /  1024.0hPa Calm     95% 0in /  0.0mm 0 W/m2
03:34 27.9 °F /  -2.3 °C 26.6 °F /  -3 °C 30.2in /  1024.0hPa Calm     95% 0in /  0.0mm 0 W/m2
03:39 27.9 °F /  -2.3 °C 26.6 °F /  -3 °C 30.2in /  1023.7hPa Calm     95% 0in /  0.0mm 0 W/m2
03:44 27.9 °F /  -2.3 °C 26.6 °F /  -3 °C 30.2in /  1023.7hPa Calm     95% 0in /  0.0mm 0 W/m2
03:49 28 °F /  -2.2 °C 26.8 °F /  -2.9 °C 30.2in /  1023.7hPa Calm     95% 0in /  0.0mm 0 W/m2
03:54 28.2 °F /  -2.1 °C 27 °F /  -2.8 °C 30.2in /  1023.7hPa Calm     95% 0in /  0.0mm 0 W/m2
03:59 28.2 °F /  -2.1 °C 27 °F /  -2.8 °C 30.2in /  1023.7hPa Calm     95% 0in /  0.0mm 0 W/m2
04:04 28.6 °F /  -1.9 °C 27.3 °F /  -2.6 °C 30.2in /  1023.7hPa Calm     95% 0in /  0.0mm 0 W/m2
04:09 28.6 °F /  -1.9 °C 27.3 °F /  -2.6 °C 30.2in /  1023.7hPa Calm     95% 0in /  0.0mm 0 W/m2
04:14 28.6 °F /  -1.9 °C 27.3 °F /  -2.6 °C 30.2in /  1023.7hPa Calm     95% 0in /  0.0mm 0 W/m2
04:19 28.8 °F /  -1.8 °C 27.5 °F /  -2.5 °C 30.2in /  1023.7hPa Calm     95% 0in /  0.0mm 0 W/m2
04:24 28.8 °F /  -1.8 °C 27.5 °F /  -2.5 °C 30.2in /  1023.7hPa Calm     95% 0in /  0.0mm 0 W/m2
04:29 28.9 °F /  -1.7 °C 27.7 °F /  -2.4 °C 30.2in /  1023.7hPa Calm     95% 0in /  0.0mm 0 W/m2
04:34 29.1 °F /  -1.6 °C 28 °F /  -2.2 °C 30.2in /  1023.7hPa Calm     96% 0in /  0.0mm 0 W/m2
04:39 29.3 °F /  -1.5 °C 28.2 °F /  -2.1 °C 30.2in /  1023.7hPa Calm     96% 0in /  0.0mm 0 W/m2
04:44 29.3 °F /  -1.5 °C 28.2 °F /  -2.1 °C 30.2in /  1023.7hPa Calm     96% 0in /  0.0mm 0 W/m2
04:50 29.3 °F /  -1.5 °C 28.2 °F /  -2.1 °C 30.2in /  1023.7hPa Calm     96% 0in /  0.0mm 0 W/m2
04:55 29.3 °F /  -1.5 °C 28 °F /  -2.2 °C 30.2in /  1023.7hPa Calm     95% 0in /  0.0mm 0 W/m2
05:00 29.3 °F /  -1.5 °C 28 °F /  -2.2 °C 30.2in /  1023.7hPa Calm     95% 0in /  0.0mm 0 W/m2
05:05 29.3 °F /  -1.5 °C 28 °F /  -2.2 °C 30.2in /  1023.7hPa Calm     95% 0in /  0.0mm 0 W/m2
05:10 29.5 °F /  -1.4 °C 28.2 °F /  -2.1 °C 30.2in /  1023.7hPa Calm     95% 0in /  0.0mm 0 W/m2
05:15 29.5 °F /  -1.4 °C 28.2 °F /  -2.1 °C 30.2in /  1023.7hPa Calm     95% 0in /  0.0mm 0 W/m2
05:20 29.5 °F /  -1.4 °C 28.2 °F /  -2.1 °C 30.2in /  1023.7hPa Calm     95% 0in /  0.0mm 0 W/m2
05:25 29.5 °F /  -1.4 °C 28.2 °F /  -2.1 °C 30.2in /  1023.4hPa Calm     95% 0in /  0.0mm 0 W/m2
05:30 29.7 °F /  -1.3 °C 28.4 °F /  -2 °C 30.2in /  1023.7hPa ESE 0.9mph /  1.4km/h 1mph /  1.6km/h 95% 0in /  0.0mm 0 W/m2
05:35 29.7 °F /  -1.3 °C 28.6 °F /  -1.9 °C 30.2in /  1023.4hPa ESE 2mph /  3.2km/h 2mph /  3.2km/h 96% 0in /  0.0mm 0 W/m2
Juneau County Weather
Compliments of Weather Underground - 2 mb